Time;durP1;ratioP1;P1;durP2;ratioP2;P2;SDS_P1;SDS_P2;PMS_P1;PMS_P2;Temp;Humidity;BMP_temperature;BMP_pressure;BME280_temperature;BME280_humidity;BME280_pressure;Samples;Min_cycle;Max_cycle;Signal;HPM_P1;HPM_P2
2021/03/01 00:00:15;;;;;;;16.53;10.53;;;4.50;70.80;;;;;;5100132;28;20214;-61
2021/03/01 00:02:42;;;;;;;18.53;10.83;;;4.50;70.90;;;;;;5093605;28;20208;-61
2021/03/01 00:05:11;;;;;;;17.43;11.03;;;4.50;70.90;;;;;;5095989;28;20224;-61
2021/03/01 00:07:38;;;;;;;16.67;10.30;;;4.40;71.00;;;;;;5102788;28;20612;-61
2021/03/01 00:10:06;;;;;;;18.23;11.03;;;4.40;71.10;;;;;;5105155;28;20209;-61
2021/03/01 00:12:33;;;;;;;17.77;10.90;;;4.40;71.20;;;;;;5091935;28;20208;-61
2021/03/01 00:14:59;;;;;;;15.17;10.83;;;4.40;71.30;;;;;;5102068;28;20714;-61
2021/03/01 00:17:26;;;;;;;17.13;9.83;;;4.40;71.40;;;;;;5103574;28;20210;-61
2021/03/01 00:19:53;;;;;;;14.03;10.27;;;4.40;71.50;;;;;;5094499;28;20208;-61
2021/03/01 00:22:19;;;;;;;16.50;10.37;;;4.40;71.70;;;;;;5101057;28;20638;-61
2021/03/01 00:24:46;;;;;;;16.80;9.47;;;4.40;71.70;;;;;;5099038;28;20232;-61
2021/03/01 00:27:12;;;;;;;13.30;9.07;;;4.40;71.60;;;;;;5089980;28;20213;-61
2021/03/01 00:29:39;;;;;;;15.83;9.70;;;4.40;71.60;;;;;;5099042;28;20215;-61
2021/03/01 00:32:06;;;;;;;12.93;9.50;;;4.40;71.50;;;;;;5099921;28;20216;-61
2021/03/01 00:34:33;;;;;;;18.33;9.50;;;4.40;71.50;;;;;;5097327;28;20207;-60
2021/03/01 00:37:00;;;;;;;17.77;9.80;;;4.40;71.60;;;;;;5092406;28;20304;-60
2021/03/01 00:39:27;;;;;;;13.53;9.10;;;4.40;71.80;;;;;;5097475;28;20197;-60
2021/03/01 00:41:53;;;;;;;16.77;8.67;;;4.40;71.80;;;;;;5100692;28;20218;-60
2021/03/01 00:44:20;;;;;;;13.70;9.40;;;4.30;71.80;;;;;;5093778;28;20708;-60
2021/03/01 00:46:46;;;;;;;13.50;8.73;;;4.20;71.80;;;;;;5099720;28;20209;-60
2021/03/01 00:49:13;;;;;;;17.40;9.10;;;4.20;71.80;;;;;;5096148;28;20224;-61
2021/03/01 00:51:41;;;;;;;12.93;9.30;;;4.20;71.90;;;;;;5096853;28;20235;-65
2021/03/01 00:54:07;;;;;;;13.27;9.20;;;4.10;72.00;;;;;;5097947;28;20201;-61
2021/03/01 00:56:34;;;;;;;19.20;10.70;;;4.00;72.00;;;;;;5090503;28;20205;-60
2021/03/01 00:59:01;;;;;;;13.40;9.27;;;3.90;72.20;;;;;;5098668;28;20323;-60
2021/03/01 01:01:27;;;;;;;17.70;10.37;;;3.80;72.40;;;;;;5099267;28;20205;-61
2021/03/01 01:03:54;;;;;;;17.20;10.30;;;3.80;72.70;;;;;;5095101;28;20236;-60
2021/03/01 01:06:21;;;;;;;21.33;10.60;;;3.80;72.90;;;;;;5095583;28;20322;-60
2021/03/01 01:08:47;;;;;;;17.07;9.97;;;3.70;73.00;;;;;;5096013;28;20209;-60
2021/03/01 01:11:14;;;;;;;15.53;9.60;;;3.70;73.10;;;;;;5093397;28;20544;-60
2021/03/01 01:13:41;;;;;;;17.00;9.77;;;3.60;73.00;;;;;;5101797;28;20231;-60
2021/03/01 01:16:07;;;;;;;16.10;9.67;;;3.60;73.10;;;;;;5096217;28;20224;-61
2021/03/01 01:18:34;;;;;;;13.60;8.77;;;3.50;73.20;;;;;;5105428;28;20520;-61
2021/03/01 01:21:01;;;;;;;15.20;8.90;;;3.50;73.50;;;;;;5098074;28;20300;-61
2021/03/01 01:23:27;;;;;;;13.63;9.53;;;3.40;73.60;;;;;;5103893;28;20236;-61
2021/03/01 01:25:54;;;;;;;14.70;9.57;;;3.50;73.90;;;;;;5105251;28;20227;-61
2021/03/01 01:28:20;;;;;;;17.53;9.30;;;3.40;74.00;;;;;;5102250;27;20212;-61
2021/03/01 01:30:47;;;;;;;16.83;9.07;;;3.40;74.10;;;;;;5098613;28;20593;-61
2021/03/01 01:33:13;;;;;;;12.70;8.97;;;3.50;74.20;;;;;;5102850;28;20205;-61
2021/03/01 01:35:40;;;;;;;14.87;9.17;;;3.50;74.20;;;;;;5098678;28;20209;-61
2021/03/01 01:38:08;;;;;;;12.90;8.30;;;3.50;74.10;;;;;;5103894;28;20212;-61
2021/03/01 01:40:36;;;;;;;15.10;8.40;;;3.40;74.00;;;;;;5100002;28;20305;-61
2021/03/01 01:43:03;;;;;;;13.83;8.23;;;3.40;74.10;;;;;;5102682;28;20641;-61
2021/03/01 01:45:30;;;;;;;14.30;9.40;;;3.30;74.20;;;;;;5100175;28;20254;-61
2021/03/01 01:47:57;;;;;;;19.67;9.90;;;3.30;74.40;;;;;;5102148;28;20205;-61
2021/03/01 01:50:26;;;;;;;20.07;10.90;;;3.30;74.60;;;;;;5097299;28;20227;-61
2021/03/01 01:52:55;;;;;;;14.27;9.70;;;3.20;74.70;;;;;;5104680;28;20274;-61
2021/03/01 01:55:22;;;;;;;14.20;9.73;;;3.20;74.70;;;;;;5102563;28;20209;-61
2021/03/01 01:57:49;;;;;;;18.53;10.27;;;3.10;74.80;;;;;;5101668;28;20240;-61
2021/03/01 02:00:36;;;;;;;11.63;8.50;;;3.10;75.00;;;;;;5099122;28;20529;-61
2021/03/01 02:03:27;;;;;;;21.93;9.60;;;3.10;75.20;;;;;;5096768;28;20217;-60
2021/03/01 02:05:59;;;;;;;26.00;10.43;;;3.00;75.20;;;;;;5093668;28;20256;-61
2021/03/01 02:08:44;;;;;;;28.40;9.87;;;3.00;75.30;;;;;;5098016;28;20196;-61
2021/03/01 02:11:34;;;;;;;15.77;9.70;;;3.00;75.50;;;;;;5101505;28;20216;-61
2021/03/01 02:14:15;;;;;;;15.57;9.17;;;2.90;75.60;;;;;;5100951;28;20296;-61
2021/03/01 02:16:41;;;;;;;13.33;8.80;;;2.90;75.60;;;;;;5105058;28;20223;-61
2021/03/01 02:19:08;;;;;;;15.00;9.80;;;2.90;75.70;;;;;;5094758;28;20226;-61
2021/03/01 02:21:44;;;;;;;12.93;8.73;;;2.80;75.90;;;;;;5101326;28;20212;-61
2021/03/01 02:24:21;;;;;;;15.23;8.67;;;2.80;76.20;;;;;;5100809;28;20668;-61
2021/03/01 02:26:50;;;;;;;15.33;9.00;;;2.80;76.30;;;;;;5097827;28;20225;-61
2021/03/01 02:29:21;;;;;;;15.47;8.80;;;2.80;76.60;;;;;;5103271;28;20712;-61
2021/03/01 02:31:48;;;;;;;13.47;8.53;;;2.70;76.70;;;;;;5108833;28;20529;-61
2021/03/01 02:34:18;;;;;;;13.83;9.50;;;2.70;76.90;;;;;;5099379;28;20243;-61
2021/03/01 02:36:53;;;;;;;15.43;8.20;;;2.70;77.00;;;;;;5093420;28;21019;-61
2021/03/01 02:39:22;;;;;;;13.67;9.20;;;2.70;77.10;;;;;;5096799;28;20208;-61
2021/03/01 02:41:51;;;;;;;13.53;9.17;;;2.70;77.20;;;;;;5095751;28;20227;-61
2021/03/01 02:44:22;;;;;;;15.60;9.10;;;2.70;77.20;;;;;;5095824;28;20633;-61
2021/03/01 02:46:49;;;;;;;14.23;8.50;;;2.70;77.20;;;;;;5107756;28;20228;-61
2021/03/01 02:49:17;;;;;;;16.83;9.43;;;2.60;76.90;;;;;;5097229;28;20732;-61
2021/03/01 02:51:47;;;;;;;17.23;9.57;;;2.60;77.10;;;;;;5098690;28;20656;-61
2021/03/01 02:54:15;;;;;;;15.73;9.17;;;2.50;77.20;;;;;;5094426;28;20627;-61
2021/03/01 02:56:42;;;;;;;15.50;9.37;;;2.50;77.30;;;;;;5103862;28;20205;-62
2021/03/01 02:59:10;;;;;;;15.10;9.07;;;2.50;77.60;;;;;;5104635;28;20248;-61
2021/03/01 03:01:38;;;;;;;15.27;9.10;;;2.50;77.70;;;;;;5095333;28;20299;-61
2021/03/01 03:04:07;;;;;;;14.57;8.50;;;2.50;77.80;;;;;;5100720;28;20630;-61
2021/03/01 03:06:36;;;;;;;12.30;8.57;;;2.50;78.00;;;;;;5102039;28;20225;-61
2021/03/01 03:09:07;;;;;;;14.47;9.87;;;2.50;78.20;;;;;;5103903;27;20208;-61
2021/03/01 03:11:35;;;;;;;12.10;8.60;;;2.60;78.10;;;;;;5097557;28;20213;-61
2021/03/01 03:14:03;;;;;;;15.03;8.90;;;2.60;78.00;;;;;;5100584;28;20201;-61
2021/03/01 03:16:31;;;;;;;13.87;8.97;;;2.50;78.10;;;;;;5099847;28;20559;-61
2021/03/01 03:19:00;;;;;;;14.73;8.67;;;2.50;78.20;;;;;;5099522;28;20209;-62
2021/03/01 03:21:27;;;;;;;14.73;8.40;;;2.50;78.40;;;;;;5097158;28;20210;-61
2021/03/01 03:23:56;;;;;;;17.97;9.90;;;2.50;78.50;;;;;;5098705;28;20209;-61
2021/03/01 03:26:23;;;;;;;13.27;8.70;;;2.50;78.60;;;;;;5094984;28;20243;-61
2021/03/01 03:28:50;;;;;;;19.23;8.67;;;2.50;78.60;;;;;;5097267;28;20330;-61
2021/03/01 03:31:16;;;;;;;14.53;8.60;;;2.50;78.50;;;;;;5092186;28;20522;-61
2021/03/01 03:33:43;;;;;;;14.17;8.67;;;2.50;78.40;;;;;;5093769;28;20300;-61
2021/03/01 03:36:12;;;;;;;13.13;8.83;;;2.50;78.40;;;;;;5095609;28;20215;-61
2021/03/01 03:38:49;;;;;;;16.17;8.90;;;2.40;78.30;;;;;;5094999;28;20292;-61
2021/03/01 03:41:16;;;;;;;15.13;9.40;;;2.40;78.40;;;;;;5097223;28;20208;-61
2021/03/01 03:43:44;;;;;;;14.27;9.33;;;2.30;78.40;;;;;;5092061;28;20235;-61
2021/03/01 03:46:13;;;;;;;12.73;8.10;;;2.30;78.60;;;;;;5093699;28;20225;-61
2021/03/01 03:48:42;;;;;;;16.67;9.43;;;2.40;79.40;;;;;;5092325;28;20622;-61
2021/03/01 03:51:12;;;;;;;16.20;8.83;;;2.40;78.80;;;;;;5091576;28;20212;-61
2021/03/01 03:53:44;;;;;;;16.43;9.10;;;2.40;79.00;;;;;;5092885;28;20360;-61
2021/03/01 03:56:13;;;;;;;12.57;8.97;;;2.30;78.70;;;;;;5098857;28;20208;-61
2021/03/01 03:58:48;;;;;;;14.97;8.83;;;2.30;78.90;;;;;;5097762;28;20656;-61
2021/03/01 04:01:18;;;;;;;14.97;9.30;;;2.30;79.10;;;;;;5096773;28;20226;-61
2021/03/01 04:03:49;;;;;;;14.93;9.10;;;2.30;79.20;;;;;;5099470;28;20464;-61
2021/03/01 04:06:18;;;;;;;14.77;9.20;;;2.30;79.30;;;;;;5092964;28;20324;-61
2021/03/01 04:08:49;;;;;;;19.23;9.20;;;2.30;79.30;;;;;;5101022;28;20216;-61
2021/03/01 04:11:20;;;;;;;17.47;9.03;;;2.30;79.40;;;;;;5105314;28;20212;-61
2021/03/01 04:13:48;;;;;;;14.93;9.70;;;2.30;79.40;;;;;;5095014;28;20300;-62
2021/03/01 04:16:16;;;;;;;17.07;9.07;;;2.30;79.30;;;;;;5100025;28;20626;-61
2021/03/01 04:18:47;;;;;;;15.27;9.43;;;2.30;79.30;;;;;;5093964;28;20623;-61
2021/03/01 04:21:14;;;;;;;15.57;9.43;;;2.30;79.30;;;;;;5094102;28;20718;-61
2021/03/01 04:23:44;;;;;;;15.77;9.90;;;2.30;79.20;;;;;;5094164;28;20244;-61
2021/03/01 04:26:12;;;;;;;11.50;8.60;;;2.30;79.30;;;;;;5094293;28;20760;-61
2021/03/01 04:28:40;;;;;;;13.67;8.87;;;2.30;79.40;;;;;;5093852;28;20216;-61
2021/03/01 04:31:09;;;;;;;22.23;10.17;;;2.30;79.40;;;;;;5103390;28;20201;-61
2021/03/01 04:33:37;;;;;;;12.93;9.10;;;2.30;79.30;;;;;;5093431;28;20232;-61
2021/03/01 04:36:06;;;;;;;16.60;9.17;;;2.40;79.30;;;;;;5098768;28;20555;-61
2021/03/01 04:38:33;;;;;;;15.47;9.07;;;2.40;79.20;;;;;;5096344;28;20641;-61
2021/03/01 04:41:00;;;;;;;15.23;8.13;;;2.40;79.20;;;;;;5094852;28;20245;-63
2021/03/01 04:43:28;;;;;;;18.70;9.30;;;2.40;79.20;;;;;;5101719;28;20217;-62
2021/03/01 04:45:54;;;;;;;12.27;8.70;;;2.40;79.20;;;;;;5096362;28;20227;-61
2021/03/01 04:48:23;;;;;;;16.67;8.23;;;2.50;79.20;;;;;;5095016;28;20254;-62
2021/03/01 04:50:52;;;;;;;10.03;8.13;;;2.50;79.00;;;;;;5096652;28;20220;-60
2021/03/01 04:53:19;;;;;;;15.17;8.40;;;2.50;78.80;;;;;;5095983;28;20220;-60
2021/03/01 04:55:47;;;;;;;13.37;8.20;;;2.50;78.90;;;;;;5096089;28;20221;-62
2021/03/01 04:58:17;;;;;;;9.73;7.23;;;2.50;78.80;;;;;;5101062;28;20240;-61
2021/03/01 05:00:45;;;;;;;13.80;8.90;;;2.50;78.80;;;;;;5096817;28;20201;-61
2021/03/01 05:03:12;;;;;;;16.50;8.70;;;2.60;78.90;;;;;;5104232;28;20303;-61
2021/03/01 05:05:41;;;;;;;16.77;9.67;;;2.60;78.90;;;;;;5104031;28;20584;-61
2021/03/01 05:08:15;;;;;;;15.43;9.40;;;2.50;78.80;;;;;;5102004;28;20686;-61
2021/03/01 05:10:43;;;;;;;15.13;9.43;;;2.50;78.90;;;;;;5100251;28;20207;-61
2021/03/01 05:13:10;;;;;;;10.80;7.97;;;2.50;78.80;;;;;;5099538;28;20232;-61
2021/03/01 05:15:37;;;;;;;20.50;9.20;;;2.50;78.80;;;;;;5095570;28;20258;-61
2021/03/01 05:18:05;;;;;;;15.93;9.30;;;2.50;79.00;;;;;;5098405;28;20238;-62
2021/03/01 05:20:31;;;;;;;15.80;9.00;;;2.50;79.10;;;;;;5105151;28;20204;-61
2021/03/01 05:22:58;;;;;;;13.13;8.33;;;2.50;79.10;;;;;;5099575;28;20217;-61
2021/03/01 05:25:24;;;;;;;17.10;8.37;;;2.50;79.00;;;;;;5106455;28;20220;-61
2021/03/01 05:27:51;;;;;;;12.87;8.63;;;2.60;78.90;;;;;;5111766;28;20603;-61
2021/03/01 05:30:18;;;;;;;11.77;7.60;;;2.60;78.90;;;;;;5107299;28;20208;-61
2021/03/01 05:32:45;;;;;;;12.57;7.97;;;2.60;78.80;;;;;;5095685;28;20200;-61
2021/03/01 05:35:12;;;;;;;21.27;8.60;;;2.60;78.70;;;;;;5095730;28;20205;-61
2021/03/01 05:37:39;;;;;;;12.13;7.57;;;2.50;78.60;;;;;;5106160;28;20287;-62
2021/03/01 05:40:06;;;;;;;15.80;7.63;;;2.50;78.50;;;;;;5095290;28;20622;-61
2021/03/01 05:42:35;;;;;;;15.63;8.13;;;2.60;78.60;;;;;;5100005;28;20205;-61
2021/03/01 05:45:08;;;;;;;12.90;6.77;;;2.60;78.60;;;;;;5097034;28;20609;-61
2021/03/01 05:47:36;;;;;;;14.00;7.57;;;2.60;78.60;;;;;;5096718;28;20211;-61
2021/03/01 05:50:07;;;;;;;24.00;8.13;;;2.60;78.50;;;;;;5097438;28;20241;-61
2021/03/01 05:52:35;;;;;;;11.33;7.30;;;2.60;78.40;;;;;;5102459;28;20638;-61
2021/03/01 05:55:03;;;;;;;12.90;7.27;;;2.60;78.30;;;;;;5094531;28;20211;-61
2021/03/01 05:57:32;;;;;;;12.77;7.30;;;2.60;78.20;;;;;;5094934;28;20217;-61
2021/03/01 06:00:00;;;;;;;9.73;6.47;;;2.70;78.80;;;;;;5100359;28;20221;-61
2021/03/01 06:02:27;;;;;;;9.83;6.97;;;2.60;78.00;;;;;;5094230;28;20232;-62
2021/03/01 06:04:54;;;;;;;14.20;7.93;;;2.70;77.80;;;;;;5094812;28;20594;-61
2021/03/01 06:07:21;;;;;;;9.87;7.27;;;2.70;77.70;;;;;;5102288;28;20223;-61
2021/03/01 06:09:47;;;;;;;10.83;6.77;;;2.70;77.60;;;;;;5094215;28;20212;-61
2021/03/01 06:12:14;;;;;;;12.30;7.63;;;2.80;77.50;;;;;;5094457;28;20235;-61
2021/03/01 06:14:41;;;;;;;9.37;6.37;;;2.90;77.50;;;;;;5100138;28;20578;-61
2021/03/01 06:17:09;;;;;;;13.67;7.17;;;3.00;77.30;;;;;;5101900;28;20205;-61
2021/03/01 06:20:08;;;;;;;14.87;7.33;;;3.10;77.20;;;;;;5093880;28;20213;-61
2021/03/01 06:22:44;;;;;;;11.03;6.50;;;3.20;76.90;;;;;;5088716;28;20204;-61
2021/03/01 06:25:16;;;;;;;14.43;6.63;;;3.30;76.60;;;;;;5097504;28;20212;-61
2021/03/01 06:28:04;;;;;;;12.80;6.67;;;3.40;76.40;;;;;;5101611;28;20201;-62
2021/03/01 06:30:34;;;;;;;11.50;6.77;;;3.60;76.40;;;;;;5101163;28;20200;-62
2021/03/01 06:33:18;;;;;;;13.20;6.97;;;3.70;76.30;;;;;;5099513;28;20205;-62
2021/03/01 06:35:52;;;;;;;9.97;6.63;;;3.90;75.80;;;;;;5094432;28;20296;-61
2021/03/01 06:38:26;;;;;;;10.87;6.17;;;4.10;75.40;;;;;;5095765;28;20532;-61
2021/03/01 06:41:15;;;;;;;12.13;6.67;;;4.30;74.80;;;;;;5099494;28;20227;-61
2021/03/01 06:43:55;;;;;;;16.77;6.40;;;4.50;74.10;;;;;;5097290;28;20615;-61
2021/03/01 06:46:24;;;;;;;15.93;6.80;;;4.60;73.50;;;;;;5094084;28;20665;-61
2021/03/01 06:48:51;;;;;;;12.53;7.23;;;4.70;73.30;;;;;;5092896;28;20208;-61
2021/03/01 06:51:19;;;;;;;12.70;6.07;;;4.90;73.10;;;;;;5101346;28;20224;-61
2021/03/01 06:53:45;;;;;;;9.53;6.43;;;5.00;72.90;;;;;;5098964;28;20201;-61
2021/03/01 06:56:14;;;;;;;13.47;6.67;;;5.20;72.50;;;;;;5098746;28;20216;-61
2021/03/01 06:58:44;;;;;;;11.97;7.37;;;5.30;71.90;;;;;;5093770;28;20237;-61
2021/03/01 07:01:20;;;;;;;12.80;6.50;;;5.40;71.50;;;;;;5094943;28;20205;-61
2021/03/01 07:03:49;;;;;;;9.97;6.27;;;5.50;71.10;;;;;;5099837;28;20208;-61
2021/03/01 07:06:16;;;;;;;10.67;6.50;;;5.60;70.90;;;;;;5097843;28;20221;-61
2021/03/01 07:08:54;;;;;;;11.10;6.13;;;5.70;70.50;;;;;;5095021;28;20563;-61
2021/03/01 07:11:35;;;;;;;9.40;6.80;;;5.90;70.40;;;;;;5093763;28;20213;-60
2021/03/01 07:14:05;;;;;;;13.83;6.47;;;5.90;70.10;;;;;;5093319;28;20211;-61
2021/03/01 07:16:57;;;;;;;13.70;6.53;;;6.10;70.10;;;;;;5097186;28;20201;-60
2021/03/01 07:19:32;;;;;;;11.83;6.33;;;6.20;70.00;;;;;;5104207;28;20243;-60
2021/03/01 07:22:07;;;;;;;8.47;5.13;;;6.40;69.90;;;;;;5096449;28;20219;-60
2021/03/01 07:24:34;;;;;;;7.90;5.50;;;6.60;69.70;;;;;;5095531;28;20542;-60
2021/03/01 07:27:04;;;;;;;13.77;5.83;;;6.70;69.30;;;;;;5090703;28;20720;-60
2021/03/01 07:29:34;;;;;;;9.50;5.87;;;6.90;68.70;;;;;;5094043;28;20296;-60
2021/03/01 07:32:03;;;;;;;12.13;6.10;;;7.20;68.30;;;;;;5097004;28;20223;-60
2021/03/01 07:34:31;;;;;;;9.77;6.00;;;7.40;67.80;;;;;;5094923;28;20222;-60
2021/03/01 07:36:59;;;;;;;12.20;5.63;;;7.60;67.10;;;;;;5096969;28;20209;-60
2021/03/01 07:39:27;;;;;;;8.67;5.27;;;7.90;66.50;;;;;;5095881;28;20223;-60
2021/03/01 07:41:56;;;;;;;6.93;5.03;;;8.10;65.70;;;;;;5095607;28;20209;-60
2021/03/01 07:44:27;;;;;;;8.37;5.97;;;8.40;65.50;;;;;;5098247;28;20266;-61
2021/03/01 07:46:55;;;;;;;9.00;5.33;;;8.60;64.40;;;;;;5103888;28;20245;-60
2021/03/01 07:49:48;;;;;;;8.97;5.33;;;8.80;63.60;;;;;;5094163;28;20217;-60
2021/03/01 07:52:21;;;;;;;6.10;5.03;;;8.90;62.90;;;;;;5092514;28;20212;-61
2021/03/01 07:54:56;;;;;;;12.33;6.07;;;9.20;62.40;;;;;;5099778;28;20205;-60
2021/03/01 07:57:24;;;;;;;10.90;4.63;;;9.30;62.20;;;;;;5092839;28;20204;-61
2021/03/01 07:59:52;;;;;;;9.77;5.70;;;9.40;62.00;;;;;;5098751;28;20527;-60
2021/03/01 08:02:34;;;;;;;6.93;5.07;;;9.60;61.80;;;;;;5093529;28;20205;-60
2021/03/01 08:05:24;;;;;;;8.63;5.10;;;9.80;60.60;;;;;;5102125;28;20642;-60
2021/03/01 08:07:51;;;;;;;7.30;4.93;;;10.00;59.80;;;;;;5101781;28;20236;-59
2021/03/01 08:10:39;;;;;;;10.37;5.73;;;10.20;59.40;;;;;;5097488;28;20209;-58
2021/03/01 08:13:08;;;;;;;6.87;5.17;;;10.30;59.30;;;;;;5098008;28;20201;-59
2021/03/01 08:15:38;;;;;;;9.70;5.07;;;10.50;58.80;;;;;;5093883;28;20291;-59
2021/03/01 08:18:07;;;;;;;9.43;5.20;;;10.70;58.50;;;;;;5100509;28;20232;-60
2021/03/01 08:20:36;;;;;;;6.67;5.20;;;10.80;58.20;;;;;;5096903;28;20639;-60
2021/03/01 08:23:07;;;;;;;14.40;5.60;;;10.90;57.60;;;;;;5099499;28;20542;-60
2021/03/01 08:25:50;;;;;;;10.57;5.57;;;11.00;57.50;;;;;;5107216;28;20216;-59
2021/03/01 08:28:17;;;;;;;9.83;5.20;;;11.10;57.50;;;;;;5091421;28;20657;-60
2021/03/01 08:30:45;;;;;;;10.17;5.07;;;11.30;57.10;;;;;;5102470;28;20596;-59
2021/03/01 08:33:14;;;;;;;9.63;5.13;;;11.40;56.40;;;;;;5095364;28;20205;-61
2021/03/01 08:36:00;;;;;;;6.77;5.03;;;11.60;55.60;;;;;;5100257;28;20291;-62
2021/03/01 08:38:42;;;;;;;8.10;5.67;;;11.70;55.00;;;;;;5099255;28;20208;-58
2021/03/01 08:41:10;;;;;;;8.03;5.67;;;11.70;55.30;;;;;;5100590;28;20525;-65
2021/03/01 08:43:37;;;;;;;7.17;4.60;;;11.90;55.20;;;;;;5093522;28;20317;-61
2021/03/01 08:46:14;;;;;;;13.50;5.13;;;12.10;54.90;;;;;;5097310;28;20917;-61
2021/03/01 08:48:46;;;;;;;12.27;5.67;;;12.20;54.90;;;;;;5103845;28;20201;-61
2021/03/01 08:51:14;;;;;;;9.17;5.20;;;12.40;55.00;;;;;;5079548;28;20198;-61
2021/03/01 08:53:40;;;;;;;11.47;5.03;;;12.50;54.20;;;;;;5094929;28;20231;-63
2021/03/01 08:56:24;;;;;;;9.27;5.20;;;12.70;54.20;;;;;;5093827;28;20612;-60
2021/03/01 08:58:51;;;;;;;7.63;5.63;;;12.90;54.00;;;;;;5103829;28;20239;-64
2021/03/01 09:01:18;;;;;;;6.70;5.47;;;13.00;53.90;;;;;;5101858;28;20296;-60
2021/03/01 09:03:47;;;;;;;8.67;5.50;;;13.20;53.50;;;;;;5094176;28;20534;-61
2021/03/01 09:06:14;;;;;;;9.20;5.33;;;13.30;52.70;;;;;;5101524;28;20670;-61
2021/03/01 09:08:45;;;;;;;10.50;5.43;;;13.40;52.50;;;;;;5094118;28;20650;-60
2021/03/01 09:11:13;;;;;;;7.97;5.00;;;13.50;52.40;;;;;;5106462;28;20216;-61
2021/03/01 09:13:42;;;;;;;6.60;4.77;;;13.60;51.20;;;;;;5100044;28;20214;-61
2021/03/01 09:16:23;;;;;;;9.53;5.67;;;13.60;50.70;;;;;;5103567;28;20211;-63
2021/03/01 09:18:58;;;;;;;8.83;5.97;;;13.70;50.50;;;;;;5099574;28;20278;-61
2021/03/01 09:21:25;;;;;;;7.60;5.77;;;13.70;48.30;;;;;;5099174;28;20238;-60
2021/03/01 09:23:53;;;;;;;10.50;5.73;;;13.50;48.80;;;;;;5100370;28;20205;-60
2021/03/01 09:26:26;;;;;;;9.40;5.07;;;13.40;50.20;;;;;;5096364;28;20274;-60
2021/03/01 09:28:58;;;;;;;6.07;5.00;;;13.60;50.10;;;;;;5104927;28;20244;-59
2021/03/01 09:31:31;;;;;;;5.63;4.57;;;13.80;50.00;;;;;;5104814;28;20348;-60
2021/03/01 09:33:58;;;;;;;8.77;5.73;;;14.00;49.50;;;;;;5101893;28;20320;-60
2021/03/01 09:36:30;;;;;;;10.40;5.27;;;14.10;49.20;;;;;;5101883;28;20654;-60
2021/03/01 09:38:58;;;;;;;9.00;5.53;;;14.30;49.00;;;;;;5102174;28;20248;-60
2021/03/01 09:41:44;;;;;;;10.93;5.77;;;14.50;48.80;;;;;;5097158;28;20208;-60
2021/03/01 09:44:12;;;;;;;9.00;5.37;;;14.60;48.20;;;;;;5103699;28;20213;-61
2021/03/01 09:46:39;;;;;;;7.10;4.97;;;14.70;48.00;;;;;;5105352;28;20228;-60
2021/03/01 09:49:08;;;;;;;9.83;5.57;;;14.80;47.10;;;;;;5099157;28;20212;-63
2021/03/01 09:51:35;;;;;;;13.87;5.90;;;14.80;47.20;;;;;;5105115;28;20606;-60
2021/03/01 09:54:08;;;;;;;6.27;5.47;;;15.00;47.50;;;;;;5094379;28;20212;-62
2021/03/01 09:56:50;;;;;;;10.17;5.37;;;15.10;45.90;;;;;;5102802;28;20557;-65
2021/03/01 09:59:34;;;;;;;7.30;5.33;;;15.10;44.70;;;;;;5093394;28;20237;-64
2021/03/01 10:02:22;;;;;;;9.20;4.67;;;15.00;45.10;;;;;;5101502;28;20299;-61
2021/03/01 10:04:53;;;;;;;9.23;5.27;;;15.00;45.70;;;;;;5104230;28;20291;-61
2021/03/01 10:07:36;;;;;;;11.37;5.93;;;15.10;44.00;;;;;;5098581;28;20313;-63
2021/03/01 10:10:15;;;;;;;6.77;5.23;;;15.10;44.40;;;;;;5098175;28;20197;-62
2021/03/01 10:12:49;;;;;;;9.17;5.63;;;15.10;44.00;;;;;;5102585;28;20223;-61
2021/03/01 10:15:20;;;;;;;12.77;6.10;;;14.90;43.40;;;;;;5098469;28;20266;-63
2021/03/01 10:18:01;;;;;;;11.63;6.50;;;14.80;43.70;;;;;;5102653;28;20687;-62
2021/03/01 10:20:28;;;;;;;6.63;4.77;;;14.90;44.10;;;;;;5100293;28;20516;-62
2021/03/01 10:23:06;;;;;;;7.63;5.67;;;15.20;42.90;;;;;;5101653;28;20561;-61
2021/03/01 10:26:01;;;;;;;7.93;5.77;;;15.10;42.60;;;;;;5106439;28;20575;-61
2021/03/01 10:28:32;;;;;;;9.20;5.83;;;15.10;42.60;;;;;;5097716;28;20200;-62
2021/03/01 10:31:05;;;;;;;12.33;5.70;;;15.10;42.20;;;;;;5104648;28;20303;-60
2021/03/01 10:33:51;;;;;;;7.87;6.00;;;15.00;42.60;;;;;;5094766;28;20205;-61
2021/03/01 10:36:23;;;;;;;9.43;6.03;;;14.90;43.60;;;;;;5096420;28;20531;-62
2021/03/01 10:39:22;;;;;;;8.63;5.93;;;15.00;44.30;;;;;;5098840;28;20263;-62
2021/03/01 10:41:54;;;;;;;12.27;6.90;;;15.10;43.60;;;;;;5100196;28;20237;-62
2021/03/01 10:44:44;;;;;;;10.70;6.67;;;15.00;43.50;;;;;;5099255;28;20325;-62
2021/03/01 10:47:24;;;;;;;11.43;6.63;;;15.10;44.00;;;;;;5097175;28;20332;-62
2021/03/01 10:49:55;;;;;;;8.30;5.83;;;15.40;44.00;;;;;;5098986;28;20205;-61
2021/03/01 10:52:24;;;;;;;10.70;6.80;;;15.60;43.20;;;;;;5098056;28;20761;-60
2021/03/01 10:54:53;;;;;;;12.57;6.87;;;15.60;43.00;;;;;;5103521;28;20226;-63
2021/03/01 10:57:21;;;;;;;9.27;6.80;;;15.60;43.00;;;;;;5094913;28;20209;-61
2021/03/01 10:59:50;;;;;;;11.70;7.03;;;15.70;42.70;;;;;;5098503;28;20265;-60
2021/03/01 11:02:18;;;;;;;10.57;6.80;;;15.70;42.50;;;;;;5097397;28;20216;-61
2021/03/01 11:04:46;;;;;;;10.97;6.23;;;15.80;42.30;;;;;;5104735;28;20269;-62
2021/03/01 11:07:13;;;;;;;10.47;6.87;;;16.00;42.60;;;;;;5093263;28;20649;-61
2021/03/01 11:09:40;;;;;;;11.80;6.73;;;16.00;41.20;;;;;;5098026;28;20213;-60
2021/03/01 11:12:07;;;;;;;9.53;6.93;;;16.00;42.90;;;;;;5100042;28;20201;-62
2021/03/01 11:14:34;;;;;;;11.93;6.63;;;16.00;43.00;;;;;;5099156;28;20202;-60
2021/03/01 11:17:06;;;;;;;12.77;7.50;;;16.10;42.40;;;;;;5096760;28;20208;-62
2021/03/01 11:19:33;;;;;;;9.47;7.47;;;16.20;41.60;;;;;;5100911;28;20316;-60
2021/03/01 11:22:00;;;;;;;9.87;6.73;;;16.10;42.60;;;;;;5094068;28;20223;-63
2021/03/01 11:24:26;;;;;;;11.77;7.50;;;16.20;42.40;;;;;;5093806;28;20209;-60
2021/03/01 11:26:53;;;;;;;11.73;7.43;;;16.20;41.40;;;;;;5092517;28;20243;-61
2021/03/01 11:29:20;;;;;;;20.13;8.00;;;16.20;41.70;;;;;;5103539;28;20827;-63
2021/03/01 11:31:47;;;;;;;10.33;7.13;;;16.30;42.60;;;;;;5093226;28;20201;-60
2021/03/01 11:34:17;;;;;;;16.07;8.97;;;16.60;41.90;;;;;;5093926;28;20688;-62
2021/03/01 11:36:44;;;;;;;15.60;7.97;;;16.80;41.40;;;;;;5097316;28;20215;-62
2021/03/01 11:39:14;;;;;;;11.80;8.10;;;16.80;42.60;;;;;;5111683;28;20277;-62
2021/03/01 11:41:41;;;;;;;11.77;7.77;;;16.80;41.40;;;;;;5101672;28;20236;-61
2021/03/01 11:44:08;;;;;;;11.27;7.57;;;16.70;41.60;;;;;;5095539;28;20209;-61
2021/03/01 11:46:36;;;;;;;10.43;7.63;;;16.60;41.60;;;;;;5093400;28;20223;-63
2021/03/01 11:49:04;;;;;;;10.10;7.90;;;16.40;41.20;;;;;;5102844;28;20205;-62
2021/03/01 11:51:31;;;;;;;9.43;7.13;;;16.40;41.70;;;;;;5093604;28;20209;-61
2021/03/01 11:53:58;;;;;;;15.87;7.23;;;16.40;40.00;;;;;;5095607;28;20651;-62
2021/03/01 11:56:25;;;;;;;17.50;7.90;;;16.30;40.10;;;;;;5097475;28;20212;-62
2021/03/01 11:58:52;;;;;;;12.57;7.83;;;16.50;41.50;;;;;;5103198;28;20245;-63
2021/03/01 12:01:18;;;;;;;10.87;7.57;;;16.70;42.40;;;;;;5097500;28;20651;-60
2021/03/01 12:03:45;;;;;;;11.73;7.40;;;16.70;40.80;;;;;;5100550;28;20205;-62
2021/03/01 12:06:12;;;;;;;8.70;7.50;;;16.60;39.80;;;;;;5103772;28;20228;-61
2021/03/01 12:08:39;;;;;;;8.70;6.40;;;16.50;40.20;;;;;;5100291;28;20299;-60
2021/03/01 12:11:06;;;;;;;9.20;7.23;;;16.40;39.90;;;;;;5098619;28;20201;-61
2021/03/01 12:13:34;;;;;;;11.53;6.80;;;16.40;40.60;;;;;;5101373;28;20215;-61
2021/03/01 12:16:01;;;;;;;11.43;7.23;;;16.40;40.10;;;;;;5098226;28;20212;-61
2021/03/01 12:18:30;;;;;;;12.03;7.37;;;16.30;40.30;;;;;;5092419;28;20209;-61
2021/03/01 12:20:58;;;;;;;10.90;7.60;;;16.40;39.80;;;;;;5098758;28;20540;-61
2021/03/01 12:23:24;;;;;;;9.53;7.53;;;16.50;40.40;;;;;;5094850;28;20668;-61
2021/03/01 12:25:51;;;;;;;15.00;8.63;;;16.60;40.40;;;;;;5102430;28;20219;-61
2021/03/01 12:28:18;;;;;;;9.23;7.53;;;16.70;40.00;;;;;;5099408;28;20209;-61
2021/03/01 12:30:44;;;;;;;9.50;7.00;;;16.70;41.10;;;;;;5097891;28;20207;-61
2021/03/01 12:33:11;;;;;;;9.30;7.20;;;16.90;41.50;;;;;;5090901;28;20220;-61
2021/03/01 12:35:38;;;;;;;10.07;6.70;;;17.00;40.80;;;;;;5093611;28;20551;-61
2021/03/01 12:38:06;;;;;;;9.33;6.57;;;17.10;40.80;;;;;;5100991;28;20199;-61
2021/03/01 12:40:33;;;;;;;12.63;6.43;;;17.20;40.90;;;;;;5095254;28;20216;-61
2021/03/01 12:43:00;;;;;;;10.17;7.33;;;17.30;39.70;;;;;;5099755;28;20250;-61
2021/03/01 12:45:28;;;;;;;11.13;7.43;;;17.40;39.40;;;;;;5096492;28;20202;-61
2021/03/01 12:47:55;;;;;;;8.17;6.47;;;17.30;38.10;;;;;;5093628;28;20248;-61
2021/03/01 12:50:21;;;;;;;11.70;7.87;;;17.20;38.60;;;;;;5094953;28;20223;-61
2021/03/01 12:52:48;;;;;;;10.13;7.43;;;17.00;38.90;;;;;;5099588;28;20630;-61
2021/03/01 12:55:15;;;;;;;8.63;6.17;;;16.80;38.50;;;;;;5083358;28;20205;-61
2021/03/01 12:57:41;;;;;;;11.27;7.83;;;16.70;38.50;;;;;;5096403;28;20240;-60
2021/03/01 13:00:10;;;;;;;9.50;6.77;;;16.70;38.90;;;;;;5097892;28;20715;-61